sensor_id;sensor_type;location;lat;lon;timestamp;P1;durP1;ratioP1;P2;durP2;ratioP2
19971;SDS011;10147;16.402;102.848;2024-01-15T00:02:13;32.97;;;29.80;;
19971;SDS011;10147;16.402;102.848;2024-01-15T00:04:43;36.13;;;33.13;;
19971;SDS011;10147;16.402;102.848;2024-01-15T00:07:13;38.63;;;35.45;;
19971;SDS011;10147;16.402;102.848;2024-01-15T00:09:43;38.53;;;35.15;;
19971;SDS011;10147;16.402;102.848;2024-01-15T00:12:13;40.15;;;36.67;;
19971;SDS011;10147;16.402;102.848;2024-01-15T00:14:44;15.25;;;13.68;;
19971;SDS011;10147;16.402;102.848;2024-01-15T00:17:14;16.45;;;14.55;;
19971;SDS011;10147;16.402;102.848;2024-01-15T00:19:44;15.50;;;13.93;;
19971;SDS011;10147;16.402;102.848;2024-01-15T00:22:14;17.38;;;12.65;;
19971;SDS011;10147;16.402;102.848;2024-01-15T00:24:44;16.98;;;13.90;;
19971;SDS011;10147;16.402;102.848;2024-01-15T00:27:15;14.40;;;13.10;;
19971;SDS011;10147;16.402;102.848;2024-01-15T00:29:45;13.35;;;12.15;;
19971;SDS011;10147;16.402;102.848;2024-01-15T00:32:15;13.93;;;12.20;;
19971;SDS011;10147;16.402;102.848;2024-01-15T00:34:45;49.55;;;45.03;;
19971;SDS011;10147;16.402;102.848;2024-01-15T00:37:16;66.63;;;61.17;;
19971;SDS011;10147;16.402;102.848;2024-01-15T00:39:46;63.85;;;57.83;;
19971;SDS011;10147;16.402;102.848;2024-01-15T00:42:16;69.85;;;63.10;;
19971;SDS011;10147;16.402;102.848;2024-01-15T00:44:46;63.15;;;57.67;;
19971;SDS011;10147;16.402;102.848;2024-01-15T00:47:18;67.97;;;61.65;;
19971;SDS011;10147;16.402;102.848;2024-01-15T00:49:48;68.88;;;62.38;;
19971;SDS011;10147;16.402;102.848;2024-01-15T00:52:19;16.67;;;13.43;;
19971;SDS011;10147;16.402;102.848;2024-01-15T00:54:48;16.73;;;13.27;;
19971;SDS011;10147;16.402;102.848;2024-01-15T00:57:19;14.73;;;12.85;;
19971;SDS011;10147;16.402;102.848;2024-01-15T00:59:49;15.88;;;12.90;;
19971;SDS011;10147;16.402;102.848;2024-01-15T01:02:19;20.30;;;13.07;;
19971;SDS011;10147;16.402;102.848;2024-01-15T01:04:49;15.90;;;13.07;;
19971;SDS011;10147;16.402;102.848;2024-01-15T01:07:19;15.85;;;13.32;;
19971;SDS011;10147;16.402;102.848;2024-01-15T01:09:50;18.13;;;12.50;;
19971;SDS011;10147;16.402;102.848;2024-01-15T01:12:20;13.00;;;11.65;;
19971;SDS011;10147;16.402;102.848;2024-01-15T01:14:50;14.35;;;12.25;;
19971;SDS011;10147;16.402;102.848;2024-01-15T01:17:20;13.95;;;12.05;;
19971;SDS011;10147;16.402;102.848;2024-01-15T01:19:51;13.77;;;12.32;;
19971;SDS011;10147;16.402;102.848;2024-01-15T01:22:21;13.43;;;11.73;;
19971;SDS011;10147;16.402;102.848;2024-01-15T01:24:52;12.13;;;11.02;;
19971;SDS011;10147;16.402;102.848;2024-01-15T01:27:22;41.35;;;38.50;;
19971;SDS011;10147;16.402;102.848;2024-01-15T01:29:52;14.68;;;11.93;;
19971;SDS011;10147;16.402;102.848;2024-01-15T01:32:23;12.43;;;10.80;;
19971;SDS011;10147;16.402;102.848;2024-01-15T01:34:53;11.88;;;10.77;;
19971;SDS011;10147;16.402;102.848;2024-01-15T01:37:24;13.10;;;11.70;;
19971;SDS011;10147;16.402;102.848;2024-01-15T01:39:54;14.13;;;11.88;;
19971;SDS011;10147;16.402;102.848;2024-01-15T01:42:25;15.40;;;11.77;;
19971;SDS011;10147;16.402;102.848;2024-01-15T01:44:57;17.98;;;12.90;;
19971;SDS011;10147;16.402;102.848;2024-01-15T01:47:28;14.70;;;11.90;;
19971;SDS011;10147;16.402;102.848;2024-01-15T01:49:58;16.65;;;10.70;;
19971;SDS011;10147;16.402;102.848;2024-01-15T01:52:28;15.32;;;11.73;;
19971;SDS011;10147;16.402;102.848;2024-01-15T01:54:59;12.55;;;10.65;;
19971;SDS011;10147;16.402;102.848;2024-01-15T01:57:31;31.95;;;29.45;;
19971;SDS011;10147;16.402;102.848;2024-01-15T02:00:04;30.23;;;27.88;;
19971;SDS011;10147;16.402;102.848;2024-01-15T02:02:38;13.07;;;11.18;;
19971;SDS011;10147;16.402;102.848;2024-01-15T02:05:08;12.73;;;11.10;;
19971;SDS011;10147;16.402;102.848;2024-01-15T02:07:39;11.50;;;9.52;;
19971;SDS011;10147;16.402;102.848;2024-01-15T02:10:10;12.30;;;9.60;;
19971;SDS011;10147;16.402;102.848;2024-01-15T02:12:40;12.98;;;9.63;;
19971;SDS011;10147;16.402;102.848;2024-01-15T02:15:11;13.52;;;9.20;;
19971;SDS011;10147;16.402;102.848;2024-01-15T02:20:33;11.48;;;8.90;;
19971;SDS011;10147;16.402;102.848;2024-01-15T02:25:48;13.48;;;8.90;;
19971;SDS011;10147;16.402;102.848;2024-01-15T02:28:19;13.50;;;9.13;;
19971;SDS011;10147;16.402;102.848;2024-01-15T02:30:48;11.68;;;9.35;;
19971;SDS011;10147;16.402;102.848;2024-01-15T02:33:19;15.32;;;9.82;;
19971;SDS011;10147;16.402;102.848;2024-01-15T02:35:49;12.98;;;10.15;;
19971;SDS011;10147;16.402;102.848;2024-01-15T02:38:19;11.05;;;9.38;;
19971;SDS011;10147;16.402;102.848;2024-01-15T02:40:49;15.63;;;10.77;;
19971;SDS011;10147;16.402;102.848;2024-01-15T02:43:20;13.25;;;9.02;;
19971;SDS011;10147;16.402;102.848;2024-01-15T02:45:50;15.90;;;8.63;;
19971;SDS011;10147;16.402;102.848;2024-01-15T02:48:21;11.20;;;8.23;;
19971;SDS011;10147;16.402;102.848;2024-01-15T02:50:52;14.43;;;8.30;;
19971;SDS011;10147;16.402;102.848;2024-01-15T02:53:21;12.48;;;7.93;;
19971;SDS011;10147;16.402;102.848;2024-01-15T02:55:51;12.23;;;7.95;;
19971;SDS011;10147;16.402;102.848;2024-01-15T02:58:22;14.75;;;7.70;;
19971;SDS011;10147;16.402;102.848;2024-01-15T03:00:52;10.00;;;7.65;;
19971;SDS011;10147;16.402;102.848;2024-01-15T03:03:22;17.98;;;8.30;;
19971;SDS011;10147;16.402;102.848;2024-01-15T03:05:53;15.15;;;7.65;;
19971;SDS011;10147;16.402;102.848;2024-01-15T03:08:23;15.98;;;7.28;;
19971;SDS011;10147;16.402;102.848;2024-01-15T03:10:53;11.35;;;7.50;;
19971;SDS011;10147;16.402;102.848;2024-01-15T03:13:24;11.25;;;7.78;;
19971;SDS011;10147;16.402;102.848;2024-01-15T03:15:53;12.35;;;7.65;;
19971;SDS011;10147;16.402;102.848;2024-01-15T03:18:24;9.15;;;7.55;;
19971;SDS011;10147;16.402;102.848;2024-01-15T03:20:54;12.88;;;7.97;;
19971;SDS011;10147;16.402;102.848;2024-01-15T03:23:24;13.18;;;8.90;;
19971;SDS011;10147;16.402;102.848;2024-01-15T03:25:54;14.45;;;7.82;;
19971;SDS011;10147;16.402;102.848;2024-01-15T03:28:24;13.27;;;6.97;;
19971;SDS011;10147;16.402;102.848;2024-01-15T03:30:55;18.08;;;7.35;;
19971;SDS011;10147;16.402;102.848;2024-01-15T03:33:26;19.23;;;7.80;;
19971;SDS011;10147;16.402;102.848;2024-01-15T03:35:56;12.90;;;7.38;;
19971;SDS011;10147;16.402;102.848;2024-01-15T03:38:29;14.15;;;8.20;;
19971;SDS011;10147;16.402;102.848;2024-01-15T03:41:00;17.48;;;6.95;;
19971;SDS011;10147;16.402;102.848;2024-01-15T03:43:30;15.77;;;7.25;;
19971;SDS011;10147;16.402;102.848;2024-01-15T03:46:00;8.75;;;6.93;;
19971;SDS011;10147;16.402;102.848;2024-01-15T03:48:33;13.77;;;6.88;;
19971;SDS011;10147;16.402;102.848;2024-01-15T03:51:03;14.98;;;7.35;;
19971;SDS011;10147;16.402;102.848;2024-01-15T03:53:34;10.43;;;7.15;;
19971;SDS011;10147;16.402;102.848;2024-01-15T03:56:04;12.98;;;7.05;;
19971;SDS011;10147;16.402;102.848;2024-01-15T03:58:34;12.48;;;7.03;;
19971;SDS011;10147;16.402;102.848;2024-01-15T04:01:07;9.80;;;7.20;;
19971;SDS011;10147;16.402;102.848;2024-01-15T04:03:39;14.20;;;7.03;;
19971;SDS011;10147;16.402;102.848;2024-01-15T04:06:08;14.60;;;7.00;;
19971;SDS011;10147;16.402;102.848;2024-01-15T04:08:39;10.88;;;7.15;;
19971;SDS011;10147;16.402;102.848;2024-01-15T04:11:09;19.65;;;17.60;;
19971;SDS011;10147;16.402;102.848;2024-01-15T04:13:39;14.40;;;6.82;;
19971;SDS011;10147;16.402;102.848;2024-01-15T04:16:09;10.98;;;7.00;;
19971;SDS011;10147;16.402;102.848;2024-01-15T04:18:39;12.95;;;6.57;;
19971;SDS011;10147;16.402;102.848;2024-01-15T04:21:09;9.48;;;6.70;;
19971;SDS011;10147;16.402;102.848;2024-01-15T04:23:39;10.73;;;6.22;;
19971;SDS011;10147;16.402;102.848;2024-01-15T04:26:10;8.55;;;6.20;;
19971;SDS011;10147;16.402;102.848;2024-01-15T04:28:40;12.38;;;6.65;;
19971;SDS011;10147;16.402;102.848;2024-01-15T04:31:19;20.23;;;7.05;;
19971;SDS011;10147;16.402;102.848;2024-01-15T04:33:52;9.52;;;6.00;;
19971;SDS011;10147;16.402;102.848;2024-01-15T04:36:22;10.85;;;5.93;;
19971;SDS011;10147;16.402;102.848;2024-01-15T04:38:53;7.30;;;5.97;;
19971;SDS011;10147;16.402;102.848;2024-01-15T04:41:23;9.35;;;5.30;;
19971;SDS011;10147;16.402;102.848;2024-01-15T04:43:53;14.50;;;5.75;;
19971;SDS011;10147;16.402;102.848;2024-01-15T04:46:23;18.13;;;6.72;;
19971;SDS011;10147;16.402;102.848;2024-01-15T04:48:54;23.90;;;22.10;;
19971;SDS011;10147;16.402;102.848;2024-01-15T04:51:24;42.92;;;38.78;;
19971;SDS011;10147;16.402;102.848;2024-01-15T04:53:54;9.75;;;5.47;;
19971;SDS011;10147;16.402;102.848;2024-01-15T04:56:24;10.07;;;6.65;;
19971;SDS011;10147;16.402;102.848;2024-01-15T04:58:57;7.90;;;5.05;;
19971;SDS011;10147;16.402;102.848;2024-01-15T05:01:30;13.27;;;5.75;;
19971;SDS011;10147;16.402;102.848;2024-01-15T05:04:01;10.98;;;6.20;;
19971;SDS011;10147;16.402;102.848;2024-01-15T05:06:34;11.75;;;6.00;;
19971;SDS011;10147;16.402;102.848;2024-01-15T05:09:04;10.50;;;6.53;;
19971;SDS011;10147;16.402;102.848;2024-01-15T05:11:36;7.70;;;5.75;;
19971;SDS011;10147;16.402;102.848;2024-01-15T05:14:06;11.93;;;5.88;;
19971;SDS011;10147;16.402;102.848;2024-01-15T05:16:39;8.70;;;5.65;;
19971;SDS011;10147;16.402;102.848;2024-01-15T05:19:17;11.32;;;6.30;;
19971;SDS011;10147;16.402;102.848;2024-01-15T05:21:48;10.95;;;5.75;;
19971;SDS011;10147;16.402;102.848;2024-01-15T05:24:18;10.13;;;5.72;;
19971;SDS011;10147;16.402;102.848;2024-01-15T05:26:48;8.63;;;5.53;;
19971;SDS011;10147;16.402;102.848;2024-01-15T05:29:18;10.02;;;5.97;;
19971;SDS011;10147;16.402;102.848;2024-01-15T05:31:48;7.63;;;5.85;;
19971;SDS011;10147;16.402;102.848;2024-01-15T05:34:18;10.18;;;6.70;;
19971;SDS011;10147;16.402;102.848;2024-01-15T05:36:49;14.90;;;6.95;;
19971;SDS011;10147;16.402;102.848;2024-01-15T05:39:19;15.65;;;6.10;;
19971;SDS011;10147;16.402;102.848;2024-01-15T05:41:50;7.55;;;5.78;;
19971;SDS011;10147;16.402;102.848;2024-01-15T05:44:20;9.38;;;6.20;;
19971;SDS011;10147;16.402;102.848;2024-01-15T05:46:51;12.15;;;6.03;;
19971;SDS011;10147;16.402;102.848;2024-01-15T05:49:23;8.18;;;5.90;;
19971;SDS011;10147;16.402;102.848;2024-01-15T05:51:53;20.58;;;18.70;;
19971;SDS011;10147;16.402;102.848;2024-01-15T05:54:23;9.60;;;6.70;;
19971;SDS011;10147;16.402;102.848;2024-01-15T05:56:53;8.35;;;7.07;;
19971;SDS011;10147;16.402;102.848;2024-01-15T05:59:24;10.07;;;6.15;;
19971;SDS011;10147;16.402;102.848;2024-01-15T06:01:54;28.35;;;7.40;;
19971;SDS011;10147;16.402;102.848;2024-01-15T06:04:24;7.55;;;5.70;;
19971;SDS011;10147;16.402;102.848;2024-01-15T06:06:54;18.35;;;7.82;;
19971;SDS011;10147;16.402;102.848;2024-01-15T06:09:25;14.65;;;8.07;;
19971;SDS011;10147;16.402;102.848;2024-01-15T06:11:56;11.82;;;6.32;;
19971;SDS011;10147;16.402;102.848;2024-01-15T06:14:26;12.90;;;5.88;;
19971;SDS011;10147;16.402;102.848;2024-01-15T06:16:56;9.38;;;6.53;;
19971;SDS011;10147;16.402;102.848;2024-01-15T06:19:26;11.57;;;5.25;;
19971;SDS011;10147;16.402;102.848;2024-01-15T06:21:57;8.98;;;6.00;;
19971;SDS011;10147;16.402;102.848;2024-01-15T06:24:27;12.23;;;6.25;;
19971;SDS011;10147;16.402;102.848;2024-01-15T06:26:57;10.15;;;6.22;;
19971;SDS011;10147;16.402;102.848;2024-01-15T06:29:27;10.90;;;5.50;;
19971;SDS011;10147;16.402;102.848;2024-01-15T06:31:57;14.35;;;6.22;;
19971;SDS011;10147;16.402;102.848;2024-01-15T06:34:27;9.85;;;6.05;;
19971;SDS011;10147;16.402;102.848;2024-01-15T06:36:57;10.45;;;6.30;;
19971;SDS011;10147;16.402;102.848;2024-01-15T06:39:27;10.30;;;6.03;;
19971;SDS011;10147;16.402;102.848;2024-01-15T06:41:58;7.05;;;6.45;;
19971;SDS011;10147;16.402;102.848;2024-01-15T06:44:28;10.15;;;6.45;;
19971;SDS011;10147;16.402;102.848;2024-01-15T06:47:00;16.17;;;7.57;;
19971;SDS011;10147;16.402;102.848;2024-01-15T06:49:31;8.30;;;6.40;;
19971;SDS011;10147;16.402;102.848;2024-01-15T06:52:02;9.25;;;6.53;;
19971;SDS011;10147;16.402;102.848;2024-01-15T06:54:32;9.20;;;6.80;;
19971;SDS011;10147;16.402;102.848;2024-01-15T06:57:02;15.55;;;7.25;;
19971;SDS011;10147;16.402;102.848;2024-01-15T06:59:33;13.30;;;6.68;;
19971;SDS011;10147;16.402;102.848;2024-01-15T07:02:06;11.52;;;6.68;;
19971;SDS011;10147;16.402;102.848;2024-01-15T07:04:36;11.43;;;6.43;;
19971;SDS011;10147;16.402;102.848;2024-01-15T07:07:10;11.00;;;6.90;;
19971;SDS011;10147;16.402;102.848;2024-01-15T07:09:40;8.40;;;6.28;;
19971;SDS011;10147;16.402;102.848;2024-01-15T07:12:10;8.48;;;6.10;;
19971;SDS011;10147;16.402;102.848;2024-01-15T07:14:40;7.25;;;5.20;;
19971;SDS011;10147;16.402;102.848;2024-01-15T07:17:10;9.27;;;6.10;;
19971;SDS011;10147;16.402;102.848;2024-01-15T07:19:40;7.00;;;5.68;;
19971;SDS011;10147;16.402;102.848;2024-01-15T07:22:11;8.90;;;6.57;;
19971;SDS011;10147;16.402;102.848;2024-01-15T07:24:41;14.50;;;5.43;;
19971;SDS011;10147;16.402;102.848;2024-01-15T07:27:12;7.95;;;5.20;;
19971;SDS011;10147;16.402;102.848;2024-01-15T07:29:42;7.25;;;5.28;;
19971;SDS011;10147;16.402;102.848;2024-01-15T07:32:12;9.40;;;5.68;;
19971;SDS011;10147;16.402;102.848;2024-01-15T07:34:42;5.95;;;5.22;;
19971;SDS011;10147;16.402;102.848;2024-01-15T07:37:12;10.63;;;5.63;;
19971;SDS011;10147;16.402;102.848;2024-01-15T07:39:42;8.00;;;5.82;;
19971;SDS011;10147;16.402;102.848;2024-01-15T07:42:12;9.93;;;6.65;;
19971;SDS011;10147;16.402;102.848;2024-01-15T07:44:43;7.15;;;5.75;;
19971;SDS011;10147;16.402;102.848;2024-01-15T07:47:15;6.78;;;5.80;;
19971;SDS011;10147;16.402;102.848;2024-01-15T07:49:45;9.27;;;5.22;;
19971;SDS011;10147;16.402;102.848;2024-01-15T07:52:16;9.55;;;4.47;;
19971;SDS011;10147;16.402;102.848;2024-01-15T07:54:46;9.43;;;7.45;;
19971;SDS011;10147;16.402;102.848;2024-01-15T07:57:16;6.03;;;4.63;;
19971;SDS011;10147;16.402;102.848;2024-01-15T07:59:46;6.82;;;4.65;;
19971;SDS011;10147;16.402;102.848;2024-01-15T08:02:16;8.18;;;3.88;;
19971;SDS011;10147;16.402;102.848;2024-01-15T08:04:46;6.53;;;4.47;;
19971;SDS011;10147;16.402;102.848;2024-01-15T08:07:16;10.70;;;6.40;;
19971;SDS011;10147;16.402;102.848;2024-01-15T08:09:47;16.50;;;6.30;;
19971;SDS011;10147;16.402;102.848;2024-01-15T08:12:17;6.95;;;5.70;;
19971;SDS011;10147;16.402;102.848;2024-01-15T08:14:47;14.82;;;7.68;;
19971;SDS011;10147;16.402;102.848;2024-01-15T08:17:17;21.23;;;19.25;;
19971;SDS011;10147;16.402;102.848;2024-01-15T08:19:47;19.60;;;17.65;;
19971;SDS011;10147;16.402;102.848;2024-01-15T08:22:18;20.02;;;16.45;;
19971;SDS011;10147;16.402;102.848;2024-01-15T08:24:47;10.75;;;6.78;;
19971;SDS011;10147;16.402;102.848;2024-01-15T08:27:18;10.98;;;6.72;;
19971;SDS011;10147;16.402;102.848;2024-01-15T08:29:48;7.90;;;7.10;;
19971;SDS011;10147;16.402;102.848;2024-01-15T08:32:18;7.65;;;6.10;;
19971;SDS011;10147;16.402;102.848;2024-01-15T08:34:48;9.93;;;6.20;;
19971;SDS011;10147;16.402;102.848;2024-01-15T08:37:21;6.45;;;5.85;;
19971;SDS011;10147;16.402;102.848;2024-01-15T08:39:50;10.85;;;6.40;;
19971;SDS011;10147;16.402;102.848;2024-01-15T08:42:21;9.73;;;6.25;;
19971;SDS011;10147;16.402;102.848;2024-01-15T08:44:51;11.70;;;6.72;;
19971;SDS011;10147;16.402;102.848;2024-01-15T08:47:21;8.60;;;6.60;;
19971;SDS011;10147;16.402;102.848;2024-01-15T08:49:53;11.73;;;6.95;;
19971;SDS011;10147;16.402;102.848;2024-01-15T08:52:23;10.07;;;6.82;;
19971;SDS011;10147;16.402;102.848;2024-01-15T08:54:54;9.32;;;7.53;;
19971;SDS011;10147;16.402;102.848;2024-01-15T08:57:25;15.60;;;7.70;;
19971;SDS011;10147;16.402;102.848;2024-01-15T08:59:55;10.13;;;7.88;;
19971;SDS011;10147;16.402;102.848;2024-01-15T09:02:25;10.27;;;8.35;;
19971;SDS011;10147;16.402;102.848;2024-01-15T09:04:55;9.50;;;8.20;;
19971;SDS011;10147;16.402;102.848;2024-01-15T09:07:27;8.80;;;7.80;;
19971;SDS011;10147;16.402;102.848;2024-01-15T09:09:56;11.32;;;10.05;;
19971;SDS011;10147;16.402;102.848;2024-01-15T09:12:28;16.88;;;12.43;;
19971;SDS011;10147;16.402;102.848;2024-01-15T09:14:58;26.08;;;21.85;;
19971;SDS011;10147;16.402;102.848;2024-01-15T09:17:28;41.13;;;29.45;;
19971;SDS011;10147;16.402;102.848;2024-01-15T09:19:58;29.48;;;23.15;;
19971;SDS011;10147;16.402;102.848;2024-01-15T09:22:29;28.08;;;19.77;;
19971;SDS011;10147;16.402;102.848;2024-01-15T09:24:59;53.55;;;36.72;;
19971;SDS011;10147;16.402;102.848;2024-01-15T09:27:29;29.73;;;19.40;;
19971;SDS011;10147;16.402;102.848;2024-01-15T09:30:03;14.85;;;10.52;;
19971;SDS011;10147;16.402;102.848;2024-01-15T09:32:34;12.38;;;8.73;;
19971;SDS011;10147;16.402;102.848;2024-01-15T09:35:04;15.88;;;9.43;;
19971;SDS011;10147;16.402;102.848;2024-01-15T09:37:35;9.95;;;8.27;;
19971;SDS011;10147;16.402;102.848;2024-01-15T09:40:14;15.35;;;8.25;;
19971;SDS011;10147;16.402;102.848;2024-01-15T09:42:45;9.68;;;7.90;;
19971;SDS011;10147;16.402;102.848;2024-01-15T09:45:16;11.25;;;8.50;;
19971;SDS011;10147;16.402;102.848;2024-01-15T09:47:49;13.07;;;9.52;;
19971;SDS011;10147;16.402;102.848;2024-01-15T09:50:19;17.92;;;12.70;;
19971;SDS011;10147;16.402;102.848;2024-01-15T09:52:50;14.05;;;12.48;;
19971;SDS011;10147;16.402;102.848;2024-01-15T09:55:20;15.00;;;10.95;;
19971;SDS011;10147;16.402;102.848;2024-01-15T09:57:51;13.65;;;9.95;;
19971;SDS011;10147;16.402;102.848;2024-01-15T10:00:23;20.55;;;10.77;;
19971;SDS011;10147;16.402;102.848;2024-01-15T10:02:54;24.80;;;22.48;;
19971;SDS011;10147;16.402;102.848;2024-01-15T10:05:25;23.58;;;21.75;;
19971;SDS011;10147;16.402;102.848;2024-01-15T10:07:56;13.18;;;11.48;;
19971;SDS011;10147;16.402;102.848;2024-01-15T10:10:26;10.55;;;9.45;;
19971;SDS011;10147;16.402;102.848;2024-01-15T10:12:56;14.77;;;13.10;;
19971;SDS011;10147;16.402;102.848;2024-01-15T10:15:29;16.40;;;10.88;;
19971;SDS011;10147;16.402;102.848;2024-01-15T10:17:58;11.43;;;10.32;;
19971;SDS011;10147;16.402;102.848;2024-01-15T10:20:29;11.27;;;8.30;;
19971;SDS011;10147;16.402;102.848;2024-01-15T10:23:03;18.13;;;9.52;;
19971;SDS011;10147;16.402;102.848;2024-01-15T10:25:35;9.98;;;8.32;;
19971;SDS011;10147;16.402;102.848;2024-01-15T10:28:05;16.73;;;8.93;;
19971;SDS011;10147;16.402;102.848;2024-01-15T10:30:36;12.20;;;9.57;;
19971;SDS011;10147;16.402;102.848;2024-01-15T10:33:07;10.95;;;9.75;;
19971;SDS011;10147;16.402;102.848;2024-01-15T10:35:37;15.35;;;11.13;;
19971;SDS011;10147;16.402;102.848;2024-01-15T10:38:07;15.48;;;11.93;;
19971;SDS011;10147;16.402;102.848;2024-01-15T10:40:41;14.93;;;9.43;;
19971;SDS011;10147;16.402;102.848;2024-01-15T10:43:11;12.90;;;9.45;;
19971;SDS011;10147;16.402;102.848;2024-01-15T10:45:41;18.10;;;15.73;;
19971;SDS011;10147;16.402;102.848;2024-01-15T10:48:16;15.85;;;14.27;;
19971;SDS011;10147;16.402;102.848;2024-01-15T10:50:48;13.10;;;11.52;;
19971;SDS011;10147;16.402;102.848;2024-01-15T10:53:19;16.38;;;12.25;;
19971;SDS011;10147;16.402;102.848;2024-01-15T10:55:49;16.00;;;10.60;;
19971;SDS011;10147;16.402;102.848;2024-01-15T10:58:20;17.02;;;10.13;;
19971;SDS011;10147;16.402;102.848;2024-01-15T11:00:51;22.25;;;15.15;;
19971;SDS011;10147;16.402;102.848;2024-01-15T11:03:22;26.20;;;17.67;;
19971;SDS011;10147;16.402;102.848;2024-01-15T11:05:53;19.25;;;15.13;;
19971;SDS011;10147;16.402;102.848;2024-01-15T11:08:24;19.50;;;13.57;;
19971;SDS011;10147;16.402;102.848;2024-01-15T11:10:55;18.40;;;13.70;;
19971;SDS011;10147;16.402;102.848;2024-01-15T11:16:18;21.95;;;13.68;;
19971;SDS011;10147;16.402;102.848;2024-01-15T11:21:41;25.92;;;18.08;;
19971;SDS011;10147;16.402;102.848;2024-01-15T11:24:12;29.10;;;21.73;;
19971;SDS011;10147;16.402;102.848;2024-01-15T11:27:07;30.50;;;22.23;;
19971;SDS011;10147;16.402;102.848;2024-01-15T11:29:38;36.13;;;24.00;;
19971;SDS011;10147;16.402;102.848;2024-01-15T11:32:08;39.00;;;26.80;;
19971;SDS011;10147;16.402;102.848;2024-01-15T11:40:36;41.40;;;30.77;;
19971;SDS011;10147;16.402;102.848;2024-01-15T11:43:08;35.28;;;26.27;;
19971;SDS011;10147;16.402;102.848;2024-01-15T11:45:39;41.70;;;32.72;;
19971;SDS011;10147;16.402;102.848;2024-01-15T11:48:11;29.55;;;21.83;;
19971;SDS011;10147;16.402;102.848;2024-01-15T11:50:46;36.20;;;23.30;;
19971;SDS011;10147;16.402;102.848;2024-01-15T11:56:17;26.40;;;21.73;;
19971;SDS011;10147;16.402;102.848;2024-01-15T11:58:51;23.65;;;15.20;;
19971;SDS011;10147;16.402;102.848;2024-01-15T12:01:21;27.48;;;16.77;;
19971;SDS011;10147;16.402;102.848;2024-01-15T12:03:52;24.30;;;16.40;;
19971;SDS011;10147;16.402;102.848;2024-01-15T12:06:22;45.38;;;40.08;;
19971;SDS011;10147;16.402;102.848;2024-01-15T12:09:05;23.50;;;16.17;;
19971;SDS011;10147;16.402;102.848;2024-01-15T12:11:37;19.13;;;13.80;;
19971;SDS011;10147;16.402;102.848;2024-01-15T12:14:14;20.55;;;16.30;;
19971;SDS011;10147;16.402;102.848;2024-01-15T12:16:44;25.95;;;22.10;;
19971;SDS011;10147;16.402;102.848;2024-01-15T12:19:15;22.45;;;17.23;;
19971;SDS011;10147;16.402;102.848;2024-01-15T12:21:45;30.42;;;21.63;;
19971;SDS011;10147;16.402;102.848;2024-01-15T12:24:17;25.60;;;17.55;;
19971;SDS011;10147;16.402;102.848;2024-01-15T12:26:50;26.95;;;18.58;;
19971;SDS011;10147;16.402;102.848;2024-01-15T12:29:21;39.65;;;32.60;;
19971;SDS011;10147;16.402;102.848;2024-01-15T12:31:52;38.17;;;29.70;;
19971;SDS011;10147;16.402;102.848;2024-01-15T12:34:24;41.33;;;32.78;;
19971;SDS011;10147;16.402;102.848;2024-01-15T12:37:00;34.80;;;30.98;;
19971;SDS011;10147;16.402;102.848;2024-01-15T12:39:30;23.98;;;14.52;;
19971;SDS011;10147;16.402;102.848;2024-01-15T12:42:01;27.60;;;16.92;;
19971;SDS011;10147;16.402;102.848;2024-01-15T12:44:32;27.48;;;22.30;;
19971;SDS011;10147;16.402;102.848;2024-01-15T12:47:04;27.13;;;16.58;;
19971;SDS011;10147;16.402;102.848;2024-01-15T12:49:36;15.45;;;13.55;;
19971;SDS011;10147;16.402;102.848;2024-01-15T12:52:08;19.00;;;12.48;;
19971;SDS011;10147;16.402;102.848;2024-01-15T12:54:40;19.90;;;15.10;;
19971;SDS011;10147;16.402;102.848;2024-01-15T12:57:10;22.23;;;13.23;;
19971;SDS011;10147;16.402;102.848;2024-01-15T12:59:40;18.55;;;13.32;;
19971;SDS011;10147;16.402;102.848;2024-01-15T13:02:10;20.27;;;14.98;;
19971;SDS011;10147;16.402;102.848;2024-01-15T13:04:41;23.45;;;19.67;;
19971;SDS011;10147;16.402;102.848;2024-01-15T13:07:11;49.40;;;45.13;;
19971;SDS011;10147;16.402;102.848;2024-01-15T13:09:42;20.52;;;18.13;;
19971;SDS011;10147;16.402;102.848;2024-01-15T13:12:12;16.98;;;15.23;;
19971;SDS011;10147;16.402;102.848;2024-01-15T13:14:43;26.77;;;20.48;;
19971;SDS011;10147;16.402;102.848;2024-01-15T13:17:14;15.57;;;11.25;;
19971;SDS011;10147;16.402;102.848;2024-01-15T13:19:47;22.17;;;15.50;;
19971;SDS011;10147;16.402;102.848;2024-01-15T13:22:17;18.00;;;14.02;;
19971;SDS011;10147;16.402;102.848;2024-01-15T13:24:50;18.33;;;16.42;;
19971;SDS011;10147;16.402;102.848;2024-01-15T13:27:21;23.65;;;15.35;;
19971;SDS011;10147;16.402;102.848;2024-01-15T13:29:52;30.40;;;16.45;;
19971;SDS011;10147;16.402;102.848;2024-01-15T13:32:25;20.83;;;12.25;;
19971;SDS011;10147;16.402;102.848;2024-01-15T13:34:57;16.38;;;13.02;;
19971;SDS011;10147;16.402;102.848;2024-01-15T13:37:31;15.32;;;11.75;;
19971;SDS011;10147;16.402;102.848;2024-01-15T13:40:02;17.83;;;15.13;;
19971;SDS011;10147;16.402;102.848;2024-01-15T13:42:32;17.98;;;16.08;;
19971;SDS011;10147;16.402;102.848;2024-01-15T13:45:02;21.38;;;15.60;;
19971;SDS011;10147;16.402;102.848;2024-01-15T13:47:35;19.50;;;14.40;;
19971;SDS011;10147;16.402;102.848;2024-01-15T13:50:06;18.17;;;14.10;;
19971;SDS011;10147;16.402;102.848;2024-01-15T13:52:39;17.90;;;13.73;;
19971;SDS011;10147;16.402;102.848;2024-01-15T13:55:09;18.05;;;13.30;;
19971;SDS011;10147;16.402;102.848;2024-01-15T13:57:40;20.75;;;13.95;;
19971;SDS011;10147;16.402;102.848;2024-01-15T14:00:11;15.95;;;11.02;;
19971;SDS011;10147;16.402;102.848;2024-01-15T14:02:47;17.27;;;10.82;;
19971;SDS011;10147;16.402;102.848;2024-01-15T14:05:17;17.05;;;10.95;;
19971;SDS011;10147;16.402;102.848;2024-01-15T14:07:47;15.52;;;11.63;;
19971;SDS011;10147;16.402;102.848;2024-01-15T14:10:18;19.02;;;11.30;;
19971;SDS011;10147;16.402;102.848;2024-01-15T14:12:48;18.50;;;11.50;;
19971;SDS011;10147;16.402;102.848;2024-01-15T14:15:22;15.88;;;11.57;;
19971;SDS011;10147;16.402;102.848;2024-01-15T14:17:57;19.27;;;17.48;;
19971;SDS011;10147;16.402;102.848;2024-01-15T14:20:29;19.38;;;12.93;;
19971;SDS011;10147;16.402;102.848;2024-01-15T14:22:59;23.98;;;13.57;;
19971;SDS011;10147;16.402;102.848;2024-01-15T14:25:29;18.45;;;14.82;;
19971;SDS011;10147;16.402;102.848;2024-01-15T14:27:59;19.90;;;12.60;;
19971;SDS011;10147;16.402;102.848;2024-01-15T14:30:30;20.45;;;14.10;;
19971;SDS011;10147;16.402;102.848;2024-01-15T14:33:01;20.55;;;14.77;;
19971;SDS011;10147;16.402;102.848;2024-01-15T14:35:32;21.15;;;14.05;;
19971;SDS011;10147;16.402;102.848;2024-01-15T14:38:02;17.33;;;13.93;;
19971;SDS011;10147;16.402;102.848;2024-01-15T14:40:32;16.33;;;13.95;;
19971;SDS011;10147;16.402;102.848;2024-01-15T14:43:04;16.38;;;13.27;;
19971;SDS011;10147;16.402;102.848;2024-01-15T14:45:35;17.17;;;14.07;;
19971;SDS011;10147;16.402;102.848;2024-01-15T14:48:05;17.75;;;13.63;;